Erieville, New York
Current Conditions -  °F | °C
As of 1:54 PM on Friday 24 Oct 2014 (Local Time) from KSYR Reporting Station
Scattered Clouds Scattered Clouds  
Wind Chill: 61°   Ceiling: Unl
Heat Index: 61°   Visibility: 10mi
Dew Point: 41°   Wind: 18mph
Humidity: 48%   Direction: 290°WNW
Pressure: 29.89"   Gusts: 23mph
Location:  42.85°N, 75.76°W
Report Text: KSYR 241754Z 29016G20KT 10SM FEW030 SCT090 SCT150 16/05 A2989 RMK AO2 SLP119 T01610050 10167 20094 58014
Loading
Personal Weather Stations






























Interactive Weather Map
Tropical Storm Tracking
New forecast layout! Learn more

10-Day Weather Forecast

Advertisements
Track Severe Weather on mobile